Time;durP1;ratioP1;P1;durP2;ratioP2;P2;SDS_P1;SDS_P2;PMS_P1;PMS_P2;Temp;Humidity;BMP_temperature;BMP_pressure;BME280_temperature;BME280_humidity;BME280_pressure;Samples;Min_cycle;Max_cycle;Signal;HPM_P1;HPM_P2
2022/02/14 00:00:17;;;;;;;7.43;3.87;;;;;;;7.65;69.01;99648.25;681829;28;4477;-57
2022/02/14 00:00:38;;;;;;;9.85;3.90;;;;;;;7.65;68.33;99643.03;680886;28;1671;-57
2022/02/14 00:01:00;;;;;;;6.65;3.83;;;;;;;7.64;68.45;99652.59;680155;28;1403;-52
2022/02/14 00:01:20;;;;;;;6.47;3.40;;;;;;;7.62;68.80;99646.53;681604;29;1050;-55
2022/02/14 00:01:41;;;;;;;7.55;3.60;;;;;;;7.67;67.99;99639.56;681157;28;3304;-56
2022/02/14 00:02:02;;;;;;;7.10;3.60;;;;;;;7.79;68.10;99635.97;682345;28;3909;-57
2022/02/14 00:02:23;;;;;;;6.95;3.40;;;;;;;7.73;68.64;99640.38;680947;28;1116;-53
2022/02/14 00:02:45;;;;;;;6.65;3.67;;;;;;;7.76;67.91;99637.75;681783;28;1301;-56
2022/02/14 00:03:05;;;;;;;7.23;3.93;;;;;;;7.76;68.48;99636.00;682842;28;4597;-55
2022/02/14 00:03:26;;;;;;;6.45;3.60;;;;;;;7.70;68.95;99632.59;684335;28;1209;-52
2022/02/14 00:03:47;;;;;;;7.47;3.55;;;;;;;7.61;69.11;99629.19;684468;28;1723;-57
2022/02/14 00:04:07;;;;;;;7.40;3.55;;;;;;;7.63;68.47;99637.00;684073;28;1038;-55
2022/02/14 00:04:28;;;;;;;6.00;3.70;;;;;;;7.64;68.52;99641.31;681188;28;2230;-54
2022/02/14 00:04:48;;;;;;;7.72;3.72;;;;;;;7.69;67.87;99631.75;684285;28;1213;-56
2022/02/14 00:05:08;;;;;;;7.30;3.73;;;;;;;7.76;67.67;99636.00;683177;28;3142;-54
2022/02/14 00:05:32;;;;;;;6.57;3.65;;;;;;;7.84;67.51;99636.78;682450;28;3481;-55
2022/02/14 00:05:52;;;;;;;7.53;3.40;;;;;;;7.87;67.71;99637.66;681898;28;1310;-52
2022/02/14 00:06:12;;;;;;;7.37;3.50;;;;;;;7.83;67.87;99632.44;681702;28;4409;-54
2022/02/14 00:06:33;;;;;;;7.60;3.40;;;;;;;7.87;68.12;99629.84;681277;28;1148;-54
2022/02/14 00:06:53;;;;;;;6.83;3.60;;;;;;;7.90;67.44;99630.66;682555;28;1343;-57
2022/02/14 00:07:14;;;;;;;7.95;3.50;;;;;;;7.93;67.16;99628.00;682971;28;1218;-55
2022/02/14 00:07:35;;;;;;;7.13;3.60;;;;;;;7.94;68.03;99628.88;685565;28;1159;-52
2022/02/14 00:07:55;;;;;;;6.50;3.47;;;;;;;7.88;67.93;99622.00;684775;28;2472;-56
2022/02/14 00:08:15;;;;;;;6.80;3.38;;;;;;;7.80;68.36;99627.28;682871;28;3450;-53
2022/02/14 00:08:35;;;;;;;6.63;3.30;;;;;;;7.77;68.06;99623.88;683242;28;1242;-55
2022/02/14 00:08:56;;;;;;;7.23;3.60;;;;;;;7.79;68.04;99622.09;683570;28;1610;-54
2022/02/14 00:09:16;;;;;;;7.68;3.70;;;;;;;7.77;67.76;99619.50;683991;28;4522;-52
2022/02/14 00:09:37;;;;;;;8.20;3.70;;;;;;;7.78;68.53;99621.25;681167;29;1248;-54
2022/02/14 00:09:58;;;;;;;7.65;3.80;;;;;;;7.88;67.25;99627.22;680815;28;1190;-56
2022/02/14 00:10:18;;;;;;;7.45;3.65;;;;;;;7.86;67.93;99623.75;681445;29;1094;-53
2022/02/14 00:10:39;;;;;;;5.83;3.20;;;;;;;7.91;67.29;99621.13;680885;29;1271;-54
2022/02/14 00:10:59;;;;;;;6.60;3.40;;;;;;;7.93;67.29;99619.34;681058;28;1105;-57
2022/02/14 00:11:24;;;;;;;6.33;3.47;;;;;;;7.95;67.39;99622.81;680807;28;1481;-52
2022/02/14 00:11:45;;;;;;;8.30;3.60;;;;;;;7.89;68.00;99625.47;684564;28;3361;-56
2022/02/14 00:12:06;;;;;;;8.55;3.80;;;;;;;7.87;67.69;99617.69;683409;28;4449;-53
2022/02/14 00:12:27;;;;;;;7.57;3.80;;;;;;;7.84;67.78;99621.16;683813;28;1440;-56
2022/02/14 00:12:47;;;;;;;7.03;3.50;;;;;;;7.80;68.28;99616.88;683853;28;1289;-53
2022/02/14 00:13:07;;;;;;;7.50;3.58;;;;;;;7.80;67.56;99619.47;684201;28;1416;-53
2022/02/14 00:13:28;;;;;;;7.83;3.43;;;;;;;7.81;68.19;99625.56;685679;28;1334;-58
2022/02/14 00:13:51;;;;;;;6.78;3.40;;;;;;;7.83;67.56;99619.44;683451;28;1089;-57
2022/02/14 00:14:11;;;;;;;7.07;3.22;;;;;;;7.89;67.47;99618.53;685097;28;1379;-53
2022/02/14 00:14:32;;;;;;;7.13;3.40;;;;;;;7.87;67.96;99611.63;684229;28;1262;-53
2022/02/14 00:14:52;;;;;;;7.70;3.53;;;;;;;7.90;67.12;99614.19;684243;28;1382;-54
2022/02/14 00:15:13;;;;;;;6.70;3.22;;;;;;;7.92;67.14;99615.03;682065;28;4487;-54
2022/02/14 00:15:34;;;;;;;5.90;3.63;;;;;;;7.91;67.02;99608.13;684071;28;1141;-56
2022/02/14 00:15:54;;;;;;;6.85;3.90;;;;;;;7.92;67.29;99615.03;684380;28;1487;-55
2022/02/14 00:16:14;;;;;;;6.70;3.73;;;;;;;7.98;67.16;99612.38;683631;28;1221;-53
2022/02/14 00:16:35;;;;;;;5.78;3.42;;;;;;;7.93;67.74;99606.34;684761;28;1175;-53
2022/02/14 00:16:55;;;;;;;6.10;3.23;;;;;;;7.94;67.57;99605.47;681618;28;1320;-54
2022/02/14 00:17:16;;;;;;;7.25;3.67;;;;;;;7.83;67.79;99605.56;682379;28;1183;-56
2022/02/14 00:17:37;;;;;;;8.30;3.70;;;;;;;7.75;68.27;99602.19;682012;28;1918;-57
2022/02/14 00:17:58;;;;;;;8.30;3.50;;;;;;;7.79;68.04;99604.75;680612;28;4494;-54
2022/02/14 00:18:18;;;;;;;7.10;3.57;;;;;;;7.79;68.21;99604.75;681637;28;1114;-53
2022/02/14 00:18:39;;;;;;;7.23;3.50;;;;;;;7.75;68.66;99605.66;681381;28;3798;-55
2022/02/14 00:19:00;;;;;;;8.25;3.55;;;;;;;7.84;67.68;99607.31;683417;28;1420;-56
2022/02/14 00:19:21;;;;;;;7.05;3.50;;;;;;;7.81;67.81;99602.16;684204;28;1383;-54
2022/02/14 00:19:49;;;;;;;7.00;3.40;;;;;;;7.78;68.41;99603.03;684009;28;1220;-56
2022/02/14 00:20:11;;;;;;;8.23;3.50;;;;;;;7.77;68.26;99600.44;683732;28;1352;-57
2022/02/14 00:20:33;;;;;;;7.05;3.47;;;;;;;7.75;68.68;99599.59;684207;28;1312;-52
2022/02/14 00:20:53;;;;;;;6.68;3.42;;;;;;;7.69;68.87;99604.88;683654;28;1307;-56
2022/02/14 00:21:13;;;;;;;6.27;3.63;;;;;;;7.65;69.42;99598.81;682929;28;4420;-56
2022/02/14 00:21:34;;;;;;;6.40;3.70;;;;;;;7.66;69.79;99601.41;684514;28;1196;-56
2022/02/14 00:21:54;;;;;;;7.10;3.50;;;;;;;7.74;68.39;99597.84;685065;28;1375;-56
2022/02/14 00:22:14;;;;;;;8.17;3.57;;;;;;;7.80;67.89;99600.41;682745;28;3468;-55
2022/02/14 00:22:35;;;;;;;6.80;3.47;;;;;;;7.83;68.19;99597.78;683784;28;1140;-55
2022/02/14 00:22:55;;;;;;;6.97;3.60;;;;;;;7.87;67.81;99598.63;683878;28;1153;-56
2022/02/14 00:23:16;;;;;;;6.57;3.30;;;;;;;7.87;67.93;99604.66;683114;28;1209;-56
2022/02/14 00:23:36;;;;;;;7.73;3.70;;;;;;;7.79;69.17;99598.69;684749;28;1679;-56
2022/02/14 00:23:57;;;;;;;8.18;3.60;;;;;;;7.71;69.69;99596.16;684543;28;936;-52
2022/02/14 00:24:17;;;;;;;6.73;3.30;;;;;;;7.72;68.63;99600.47;682991;28;5287;-57
2022/02/14 00:24:38;;;;;;;7.45;3.50;;;;;;;7.81;67.61;99600.41;683175;28;1161;-56
2022/02/14 00:24:58;;;;;;;7.97;3.40;;;;;;;7.79;68.49;99596.09;683788;28;941;-57
2022/02/14 00:25:19;;;;;;;7.20;3.50;;;;;;;7.72;68.99;99597.88;684370;28;1145;-58
2022/02/14 00:25:39;;;;;;;7.88;3.55;;;;;;;7.66;69.41;99590.16;683460;28;3368;-53
2022/02/14 00:26:00;;;;;;;6.93;3.50;;;;;;;7.60;69.90;99591.06;683278;28;1259;-56
2022/02/14 00:26:20;;;;;;;7.60;3.55;;;;;;;7.56;69.77;99593.69;683790;28;1251;-55
2022/02/14 00:26:41;;;;;;;8.43;3.35;;;;;;;7.52;70.02;99592.00;683679;28;1455;-56
2022/02/14 00:27:02;;;;;;;7.70;3.50;;;;;;;7.57;69.14;99588.47;683337;28;4321;-54
2022/02/14 00:27:22;;;;;;;8.20;3.70;;;;;;;7.65;69.30;99597.06;684312;28;828;-57
2022/02/14 00:27:42;;;;;;;7.47;3.10;;;;;;;7.76;69.21;99596.13;684330;28;907;-57
2022/02/14 00:28:03;;;;;;;6.67;3.60;;;;;;;7.78;68.62;99599.56;683773;28;1015;-57
2022/02/14 00:28:23;;;;;;;7.10;3.50;;;;;;;7.79;68.53;99594.31;684300;28;1086;-57
2022/02/14 00:28:44;;;;;;;6.53;3.60;;;;;;;7.75;68.85;99594.38;683959;28;1057;-54
2022/02/14 00:29:04;;;;;;;6.83;3.43;;;;;;;7.70;68.91;99597.06;683567;28;2562;-54
2022/02/14 00:29:25;;;;;;;7.55;3.42;;;;;;;7.71;69.50;99603.09;683933;28;3980;-53
2022/02/14 00:29:46;;;;;;;6.97;3.65;;;;;;;7.63;70.22;99591.03;683982;28;1370;-53
2022/02/14 00:30:07;;;;;;;8.10;4.10;;;;;;;7.73;68.79;99590.97;683570;28;4479;-57
2022/02/14 00:30:29;;;;;;;7.35;3.90;;;;;;;7.76;68.20;99594.38;684054;28;1312;-54
2022/02/14 00:30:49;;;;;;;6.03;3.22;;;;;;;7.73;69.20;99593.56;684168;28;1026;-54
2022/02/14 00:31:09;;;;;;;6.97;3.30;;;;;;;7.79;68.31;99602.13;683789;28;1452;-56
2022/02/14 00:31:30;;;;;;;6.97;3.40;;;;;;;7.82;68.49;99596.03;684566;28;1556;-53
2022/02/14 00:31:50;;;;;;;7.67;3.30;;;;;;;7.75;68.73;99590.03;684393;28;1321;-57
2022/02/14 00:32:12;;;;;;;8.37;3.73;;;;;;;7.76;68.47;99601.31;683803;28;991;-58
2022/02/14 00:32:34;;;;;;;8.65;3.83;;;;;;;7.74;68.94;99593.53;681269;28;3314;-55
2022/02/14 00:32:54;;;;;;;7.10;3.28;;;;;;;7.78;68.49;99590.03;680780;28;3481;-55
2022/02/14 00:33:14;;;;;;;7.87;3.20;;;;;;;7.86;68.51;99592.53;680247;28;4304;-52
2022/02/14 00:33:35;;;;;;;7.67;3.23;;;;;;;7.85;68.40;99601.25;681735;28;1419;-54
2022/02/14 00:33:55;;;;;;;7.20;3.43;;;;;;;7.77;68.94;99592.66;681551;28;1450;-57
2022/02/14 00:34:16;;;;;;;6.82;3.30;;;;;;;7.67;69.66;99594.47;681118;28;1544;-53
2022/02/14 00:34:37;;;;;;;6.25;3.47;;;;;;;7.62;70.28;99593.66;684562;28;1524;-56
2022/02/14 00:34:57;;;;;;;6.97;3.45;;;;;;;7.55;70.21;99600.66;683458;28;1149;-56
2022/02/14 00:35:18;;;;;;;7.72;3.70;;;;;;;7.50;70.25;99594.63;684793;28;5015;-60
2022/02/14 00:35:38;;;;;;;7.87;3.70;;;;;;;7.40;70.89;99593.00;685306;28;1076;-53
2022/02/14 00:35:59;;;;;;;7.73;3.50;;;;;;;7.36;71.17;99592.16;683351;28;4478;-57
2022/02/14 00:36:19;;;;;;;7.57;3.40;;;;;;;7.37;70.92;99595.63;681568;28;3820;-53
2022/02/14 00:36:42;;;;;;;6.47;3.30;;;;;;;7.43;70.07;99585.16;684091;28;1234;-53
2022/02/14 00:37:02;;;;;;;7.38;3.50;;;;;;;7.48;70.37;99586.00;683217;28;1483;-58
2022/02/14 00:37:23;;;;;;;8.60;3.70;;;;;;;7.57;69.62;99588.47;683596;28;1497;-57
2022/02/14 00:37:43;;;;;;;7.30;3.27;;;;;;;7.67;68.83;99584.06;685127;28;1906;-53
2022/02/14 00:38:04;;;;;;;8.30;3.35;;;;;;;7.64;69.41;99586.69;683600;28;1070;-53
2022/02/14 00:38:24;;;;;;;7.57;3.20;;;;;;;7.58;70.30;99590.22;682060;28;1470;-56
2022/02/14 00:38:45;;;;;;;7.38;3.45;;;;;;;7.58;69.50;99585.00;682618;28;1426;-53
2022/02/14 00:39:05;;;;;;;7.47;3.40;;;;;;;7.64;69.57;99584.09;682251;28;4562;-56
2022/02/14 00:39:26;;;;;;;6.57;3.28;;;;;;;7.62;69.69;99588.47;678639;29;3137;-52
2022/02/14 00:39:46;;;;;;;7.53;3.20;;;;;;;7.57;70.22;99580.69;676911;29;3480;-53
2022/02/14 00:40:08;;;;;;;6.95;3.30;;;;;;;7.53;69.71;99578.13;676722;28;1289;-54
2022/02/14 00:40:29;;;;;;;6.57;3.53;;;;;;;7.50;70.58;99586.81;682713;28;1254;-53
2022/02/14 00:40:49;;;;;;;8.87;3.63;;;;;;;7.60;69.92;99582.38;681495;28;1452;-53
2022/02/14 00:41:10;;;;;;;7.27;3.63;;;;;;;7.67;69.37;99576.28;681847;28;1502;-56
2022/02/14 00:41:30;;;;;;;6.25;3.47;;;;;;;7.76;68.73;99586.56;683205;28;1254;-56
2022/02/14 00:41:51;;;;;;;6.50;3.10;;;;;;;7.78;68.98;99577.03;684202;28;1647;-54
2022/02/14 00:42:12;;;;;;;5.97;3.30;;;;;;;7.86;68.99;99582.13;683235;28;4351;-53
2022/02/14 00:42:34;;;;;;;6.72;3.40;;;;;;;7.86;69.02;99573.47;683324;28;1247;-52
2022/02/14 00:42:54;;;;;;;6.20;3.17;;;;;;;7.88;68.47;99584.69;684499;28;1213;-56
2022/02/14 00:43:14;;;;;;;6.07;3.17;;;;;;;7.84;68.64;99579.53;683023;28;3474;-53
2022/02/14 00:43:35;;;;;;;6.67;3.67;;;;;;;7.79;69.71;99573.50;683677;28;1471;-57
2022/02/14 00:43:55;;;;;;;6.10;3.63;;;;;;;7.81;68.70;99578.72;683760;28;1579;-55
2022/02/14 00:44:16;;;;;;;6.40;3.43;;;;;;;7.80;69.84;99577.84;682949;28;1216;-53
2022/02/14 00:44:36;;;;;;;5.83;3.40;;;;;;;7.74;70.16;99579.66;685180;28;1298;-54
2022/02/14 00:44:56;;;;;;;6.13;3.40;;;;;;;7.70;70.10;99576.25;682136;28;1209;-56
2022/02/14 00:45:17;;;;;;;6.43;3.23;;;;;;;7.81;68.84;99583.94;678629;29;4303;-53
2022/02/14 00:45:37;;;;;;;6.40;3.20;;;;;;;7.74;69.85;99577.94;679226;29;1160;-53
2022/02/14 00:45:57;;;;;;;5.53;3.20;;;;;;;7.74;69.92;99575.31;680651;29;1741;-55
2022/02/14 00:46:18;;;;;;;7.87;3.20;;;;;;;7.66;69.21;99570.19;679324;29;1185;-52
2022/02/14 00:46:38;;;;;;;7.87;3.33;;;;;;;7.64;69.89;99576.28;678638;29;3446;-55
2022/02/14 00:46:58;;;;;;;8.10;3.53;;;;;;;7.63;69.73;99574.59;681040;28;1451;-52
2022/02/14 00:47:19;;;;;;;6.50;3.08;;;;;;;7.62;69.80;99565.91;680687;28;1328;-56
2022/02/14 00:47:39;;;;;;;7.73;2.90;;;;;;;7.70;70.07;99567.56;680970;28;1530;-55
2022/02/14 00:48:00;;;;;;;7.23;3.10;;;;;;;7.75;69.55;99569.22;680715;28;4531;-52
2022/02/14 00:48:20;;;;;;;6.53;3.27;;;;;;;7.76;69.85;99557.94;683324;28;1323;-54
2022/02/14 00:48:41;;;;;;;7.80;3.40;;;;;;;7.72;70.02;99564.06;682040;28;1161;-56
2022/02/14 00:49:01;;;;;;;6.50;3.10;;;;;;;7.75;69.57;99556.22;682146;28;1136;-53
2022/02/14 00:49:22;;;;;;;6.65;3.22;;;;;;;7.73;69.45;99555.38;684498;28;1244;-55
2022/02/14 00:49:42;;;;;;;7.70;3.43;;;;;;;7.76;69.15;99567.50;683778;28;1137;-54
2022/02/14 00:50:04;;;;;;;7.10;3.20;;;;;;;7.78;68.64;99563.13;684294;28;3105;-57
2022/02/14 00:50:24;;;;;;;6.75;3.22;;;;;;;7.77;69.97;99561.44;683194;28;3556;-55
2022/02/14 00:50:45;;;;;;;6.33;3.00;;;;;;;7.80;68.97;99559.63;683735;28;1460;-55
2022/02/14 00:51:06;;;;;;;6.50;2.97;;;;;;;7.75;70.02;99558.81;682873;28;4465;-53
2022/02/14 00:51:26;;;;;;;6.40;3.10;;;;;;;7.69;69.93;99558.91;685405;28;1335;-53
2022/02/14 00:51:47;;;;;;;7.70;3.30;;;;;;;7.70;69.09;99555.41;684297;28;1141;-55
2022/02/14 00:52:07;;;;;;;8.23;3.10;;;;;;;7.68;69.70;99551.97;684656;28;1133;-55
2022/02/14 00:52:27;;;;;;;6.03;3.00;;;;;;;7.63;70.43;99556.38;684406;28;1271;-54
2022/02/14 00:52:48;;;;;;;5.60;3.00;;;;;;;7.58;70.78;99555.56;684347;28;1113;-53
2022/02/14 00:53:08;;;;;;;5.43;3.10;;;;;;;7.64;70.11;99556.34;681296;28;1271;-53
2022/02/14 00:53:29;;;;;;;5.57;3.17;;;;;;;7.58;70.54;99556.41;681116;28;3128;-55
2022/02/14 00:53:49;;;;;;;6.40;3.27;;;;;;;7.56;71.01;99552.09;681653;28;3533;-57
2022/02/14 00:54:09;;;;;;;6.75;3.15;;;;;;;7.61;70.91;99552.91;678943;28;4635;-54
2022/02/14 00:54:30;;;;;;;7.70;3.20;;;;;;;7.56;70.20;99552.09;681717;28;1415;-53
2022/02/14 00:54:52;;;;;;;7.53;3.30;;;;;;;7.51;71.22;99552.16;681314;28;1455;-53
2022/02/14 00:55:15;;;;;;;6.32;3.00;;;;;;;7.47;71.20;99563.44;684251;28;1483;-53
2022/02/14 00:55:36;;;;;;;7.10;3.08;;;;;;;7.49;71.49;99552.16;684324;28;1121;-58
2022/02/14 00:55:57;;;;;;;9.00;3.80;;;;;;;7.49;71.51;99549.56;684358;28;1161;-54
2022/02/14 00:56:17;;;;;;;8.30;3.40;;;;;;;7.50;71.65;99548.69;684021;28;1645;-55
2022/02/14 00:56:37;;;;;;;8.90;3.30;;;;;;;7.47;71.87;99538.31;681989;28;1145;-55
2022/02/14 00:56:58;;;;;;;7.15;3.63;;;;;;;7.43;71.34;99544.41;677810;29;4396;-52
2022/02/14 00:57:19;;;;;;;7.78;3.38;;;;;;;7.43;72.03;99553.97;678232;29;4011;-54
2022/02/14 00:57:40;;;;;;;8.60;3.07;;;;;;;7.42;71.79;99555.72;678684;29;1915;-56
2022/02/14 00:58:00;;;;;;;7.18;2.90;;;;;;;7.45;71.55;99547.03;678159;29;1364;-55
2022/02/14 00:58:21;;;;;;;6.10;2.90;;;;;;;7.40;72.30;99547.03;678240;29;1063;-53
2022/02/14 00:58:41;;;;;;;5.77;3.13;;;;;;;7.39;71.35;99545.31;681362;28;1116;-55
2022/02/14 00:59:01;;;;;;;6.50;2.90;;;;;;;7.39;72.24;99547.91;684008;28;1148;-55
2022/02/14 00:59:22;;;;;;;6.30;2.87;;;;;;;7.37;71.75;99541.88;684319;28;1120;-58
2022/02/14 00:59:42;;;;;;;6.35;3.10;;;;;;;7.35;72.17;99547.97;684222;28;1203;-53
2022/02/14 01:00:07;;;;;;;9.13;3.28;;;;;;;7.35;72.00;99538.41;681896;28;4479;-55
2022/02/14 01:00:27;;;;;;;7.32;3.00;;;;;;;7.49;71.04;99539.16;683774;28;3167;-57
2022/02/14 01:00:49;;;;;;;6.78;3.35;;;;;;;7.49;71.14;99539.16;684238;28;3750;-52
2022/02/14 01:01:09;;;;;;;7.30;3.00;;;;;;;7.53;71.57;99542.56;683145;28;1292;-56
2022/02/14 01:01:30;;;;;;;7.47;3.10;;;;;;;7.50;71.56;99538.28;684581;28;1161;-54
2022/02/14 01:01:50;;;;;;;6.88;3.40;;;;;;;7.53;71.46;99531.31;683850;28;1573;-54
2022/02/14 01:02:11;;;;;;;7.90;3.13;;;;;;;7.49;71.54;99535.69;684063;28;1514;-54
2022/02/14 01:02:34;;;;;;;7.40;3.07;;;;;;;7.46;71.40;99531.41;685526;28;1419;-56
2022/02/14 01:02:55;;;;;;;5.45;2.90;;;;;;;7.55;71.42;99537.38;685543;28;1384;-54
2022/02/14 01:03:15;;;;;;;6.93;3.15;;;;;;;7.58;71.48;99534.75;684570;28;4696;-57
2022/02/14 01:03:36;;;;;;;8.00;3.40;;;;;;;7.58;70.73;99535.59;683165;28;1272;-53
2022/02/14 01:03:56;;;;;;;6.77;3.10;;;;;;;7.75;69.63;99531.94;683469;28;3329;-57
2022/02/14 01:04:17;;;;;;;5.82;3.00;;;;;;;7.73;70.53;99534.56;681020;28;3604;-54
2022/02/14 01:04:39;;;;;;;6.38;3.00;;;;;;;7.86;69.63;99531.84;684431;28;1486;-55
2022/02/14 01:04:59;;;;;;;5.60;2.78;;;;;;;7.91;69.68;99527.44;684211;28;1331;-57
2022/02/14 01:05:20;;;;;;;7.17;2.80;;;;;;;7.88;70.22;99530.06;684208;28;1600;-53
2022/02/14 01:05:40;;;;;;;7.40;3.08;;;;;;;7.90;69.28;99526.56;685080;28;1188;-55
2022/02/14 01:06:00;;;;;;;7.00;3.03;;;;;;;7.83;69.87;99536.19;683483;28;4381;-57
2022/02/14 01:06:22;;;;;;;6.65;3.00;;;;;;;7.78;70.09;99531.91;683382;28;1204;-56
2022/02/14 01:06:45;;;;;;;7.28;3.00;;;;;;;7.82;69.53;99534.47;683936;28;1276;-54
2022/02/14 01:07:06;;;;;;;7.30;3.25;;;;;;;7.87;69.53;99526.59;682053;28;1606;-55
2022/02/14 01:07:28;;;;;;;6.70;3.17;;;;;;;7.80;70.03;99536.22;684338;28;3406;-55
2022/02/14 01:07:48;;;;;;;6.20;3.13;;;;;;;7.76;69.86;99533.69;685041;28;2108;-57
2022/02/14 01:08:09;;;;;;;6.30;3.10;;;;;;;7.88;69.73;99525.72;683921;28;1463;-58
2022/02/14 01:08:29;;;;;;;6.30;3.13;;;;;;;7.90;69.68;99528.31;683536;28;1194;-57
2022/02/14 01:08:49;;;;;;;7.00;3.60;;;;;;;7.88;70.00;99527.44;683669;28;1435;-59
2022/02/14 01:09:10;;;;;;;6.07;3.50;;;;;;;7.83;70.61;99519.72;683200;28;4325;-57
2022/02/14 01:09:30;;;;;;;6.93;3.25;;;;;;;7.77;70.95;99525.00;684375;28;927;-56
2022/02/14 01:09:50;;;;;;;7.33;3.20;;;;;;;7.72;70.77;99526.78;684432;28;971;-56
2022/02/14 01:10:12;;;;;;;7.20;3.10;;;;;;;7.64;70.75;99525.13;684039;28;979;-52
2022/02/14 01:10:32;;;;;;;7.38;3.00;;;;;;;7.60;70.71;99527.78;683429;28;1003;-54
2022/02/14 01:10:53;;;;;;;6.63;2.93;;;;;;;7.57;71.09;99525.22;684117;28;1320;-56
2022/02/14 01:11:13;;;;;;;6.63;2.92;;;;;;;7.60;70.86;99527.78;682874;28;3633;-58
2022/02/14 01:11:34;;;;;;;5.63;2.83;;;;;;;7.63;70.79;99526.00;684852;28;1326;-57
2022/02/14 01:11:54;;;;;;;5.32;2.92;;;;;;;7.64;70.55;99529.47;683501;28;1513;-56
2022/02/14 01:12:14;;;;;;;5.17;3.00;;;;;;;7.61;71.37;99532.09;683947;28;4374;-53
2022/02/14 01:12:36;;;;;;;6.45;3.25;;;;;;;7.57;71.21;99533.00;684345;28;1493;-56
2022/02/14 01:12:57;;;;;;;6.57;3.58;;;;;;;7.58;71.34;99526.94;683883;28;1037;-53
2022/02/14 01:13:17;;;;;;;6.63;3.17;;;;;;;7.55;71.27;99530.44;683250;28;1257;-52
2022/02/14 01:13:38;;;;;;;7.50;3.08;;;;;;;7.56;71.55;99533.88;684434;28;836;-53
2022/02/14 01:13:58;;;;;;;7.23;3.27;;;;;;;7.54;71.58;99527.84;680991;28;1312;-53
2022/02/14 01:14:18;;;;;;;7.00;3.28;;;;;;;7.60;70.65;99538.19;681789;28;1072;-54
2022/02/14 01:14:39;;;;;;;8.17;3.40;;;;;;;7.56;71.33;99526.97;680191;28;3395;-56
2022/02/14 01:14:59;;;;;;;7.37;3.17;;;;;;;7.58;71.02;99527.78;681778;28;4622;-55
2022/02/14 01:15:19;;;;;;;5.93;2.70;;;;;;;7.58;71.76;99526.94;682329;28;1067;-54
2022/02/14 01:15:40;;;;;;;6.55;2.90;;;;;;;7.58;71.06;99520.00;681427;28;1197;-53
2022/02/14 01:16:01;;;;;;;5.85;2.92;;;;;;;7.66;70.37;99523.38;683974;28;1350;-59
2022/02/14 01:16:21;;;;;;;6.20;2.90;;;;;;;7.73;70.56;99524.16;685694;28;1410;-55
2022/02/14 01:16:42;;;;;;;7.87;3.17;;;;;;;7.77;69.55;99527.59;685477;28;933;-54
2022/02/14 01:17:02;;;;;;;6.35;2.85;;;;;;;7.74;70.23;99525.91;682901;28;1246;-58
2022/02/14 01:17:23;;;;;;;5.57;2.78;;;;;;;7.78;70.31;99529.31;684485;28;826;-55
2022/02/14 01:17:43;;;;;;;8.57;3.20;;;;;;;7.78;70.56;99531.91;685526;28;2007;-53
2022/02/14 01:18:04;;;;;;;9.02;3.03;;;;;;;7.81;71.08;99529.28;681612;28;4416;-55
2022/02/14 01:18:24;;;;;;;7.37;3.10;;;;;;;7.79;70.57;99531.03;684374;28;3807;-60
2022/02/14 01:18:45;;;;;;;6.70;2.90;;;;;;;7.87;69.15;99524.00;684230;28;1437;-55
2022/02/14 01:19:05;;;;;;;6.85;3.03;;;;;;;7.89;70.02;99529.19;682378;28;1345;-58
2022/02/14 01:19:26;;;;;;;7.63;3.07;;;;;;;7.84;69.91;99522.28;684119;28;1392;-56
2022/02/14 01:19:46;;;;;;;7.00;2.80;;;;;;;7.85;70.38;99523.19;683974;28;1121;-54
2022/02/14 01:20:09;;;;;;;6.23;2.80;;;;;;;7.79;70.57;99523.22;684098;28;1065;-56
2022/02/14 01:20:29;;;;;;;6.68;3.05;;;;;;;7.80;70.58;99525.81;683378;28;2783;-54
2022/02/14 01:20:50;;;;;;;7.80;3.17;;;;;;;7.80;70.84;99519.75;683344;28;1057;-53
2022/02/14 01:21:11;;;;;;;7.15;3.47;;;;;;;7.84;70.49;99529.25;682774;28;4408;-57
2022/02/14 01:21:33;;;;;;;6.55;3.10;;;;;;;7.89;70.14;99530.06;683086;28;3403;-57
2022/02/14 01:21:54;;;;;;;6.90;3.10;;;;;;;7.86;70.56;99518.81;682522;28;3353;-56
2022/02/14 01:22:15;;;;;;;6.33;3.07;;;;;;;7.86;69.72;99513.63;682548;28;1203;-54
2022/02/14 01:22:36;;;;;;;6.35;3.10;;;;;;;7.87;70.37;99516.19;684380;28;1306;-53
2022/02/14 01:22:56;;;;;;;6.05;3.15;;;;;;;7.97;69.55;99522.16;683999;28;1448;-57
2022/02/14 01:23:16;;;;;;;8.23;3.00;;;;;;;7.94;69.59;99515.25;683144;28;1056;-54
2022/02/14 01:23:37;;;;;;;6.55;2.83;;;;;;;8.05;68.70;99504.69;684267;28;1065;-53
2022/02/14 01:23:57;;;;;;;6.57;2.97;;;;;;;8.00;69.45;99503.88;684570;28;5411;-52
2022/02/14 01:24:18;;;;;;;7.25;3.53;;;;;;;7.95;69.77;99503.94;681941;28;1677;-56
2022/02/14 01:24:38;;;;;;;7.85;3.50;;;;;;;7.99;69.34;99504.78;681848;28;1449;-53
2022/02/14 01:24:59;;;;;;;7.60;3.00;;;;;;;8.01;68.46;99509.06;681386;28;3270;-53
2022/02/14 01:25:19;;;;;;;6.70;2.90;;;;;;;8.08;68.46;99499.44;680931;28;3660;-53
2022/02/14 01:25:40;;;;;;;7.40;3.20;;;;;;;8.08;68.70;99509.00;678377;29;1525;-55
2022/02/14 01:26:00;;;;;;;7.25;3.40;;;;;;;8.05;68.71;99507.28;678728;29;1320;-52
2022/02/14 01:26:20;;;;;;;6.77;3.27;;;;;;;7.98;69.43;99514.31;681336;28;1353;-53
2022/02/14 01:26:42;;;;;;;5.33;2.90;;;;;;;7.95;69.39;99506.56;681852;28;1137;-54
2022/02/14 01:27:04;;;;;;;6.32;3.10;;;;;;;7.94;69.67;99509.19;680672;28;4398;-54
2022/02/14 01:27:24;;;;;;;6.63;3.10;;;;;;;7.89;69.58;99503.16;681490;28;1322;-57
2022/02/14 01:27:44;;;;;;;6.03;2.93;;;;;;;7.83;70.22;99510.16;684338;28;1152;-56
2022/02/14 01:28:05;;;;;;;7.13;3.00;;;;;;;7.84;70.06;99508.44;684449;28;1660;-54
2022/02/14 01:28:25;;;;;;;6.50;3.00;;;;;;;7.84;70.17;99505.84;684536;28;3359;-52
2022/02/14 01:28:45;;;;;;;6.18;3.13;;;;;;;7.85;69.97;99502.34;683867;28;3517;-54
2022/02/14 01:29:06;;;;;;;7.87;3.13;;;;;;;7.84;69.70;99503.22;683395;28;1320;-53
2022/02/14 01:29:26;;;;;;;6.93;3.20;;;;;;;7.81;70.39;99501.53;683816;28;1295;-52
2022/02/14 01:29:46;;;;;;;7.07;3.33;;;;;;;7.77;70.30;99504.19;684020;28;1217;-55
2022/02/14 01:30:09;;;;;;;5.90;3.07;;;;;;;7.79;69.94;99508.47;681963;28;4278;-54
2022/02/14 01:30:29;;;;;;;6.97;3.20;;;;;;;7.81;69.71;99511.94;681418;28;1450;-52
2022/02/14 01:30:49;;;;;;;6.57;3.43;;;;;;;7.77;70.39;99507.63;683006;28;1091;-55
2022/02/14 01:31:10;;;;;;;6.93;3.43;;;;;;;7.80;70.22;99505.00;681160;28;1614;-53
2022/02/14 01:31:30;;;;;;;6.22;2.88;;;;;;;7.81;70.36;99506.72;684060;28;1410;-55
2022/02/14 01:31:51;;;;;;;5.50;3.08;;;;;;;7.82;69.42;99508.47;684249;28;1244;-54
2022/02/14 01:32:11;;;;;;;6.13;3.20;;;;;;;7.90;69.55;99504.91;682240;28;3314;-58
2022/02/14 01:32:32;;;;;;;6.95;3.13;;;;;;;7.97;68.90;99506.53;683665;28;1314;-58
2022/02/14 01:32:52;;;;;;;6.53;3.20;;;;;;;7.93;69.46;99500.50;684224;28;1403;-53
2022/02/14 01:33:13;;;;;;;7.82;3.28;;;;;;;7.95;69.07;99503.09;683067;28;4601;-57
2022/02/14 01:33:34;;;;;;;8.10;4.00;;;;;;;8.06;68.70;99509.03;683814;28;1615;-53
2022/02/14 01:33:54;;;;;;;7.63;3.50;;;;;;;8.13;68.45;99502.84;684589;28;1363;-54
2022/02/14 01:34:14;;;;;;;6.45;3.13;;;;;;;8.11;69.05;99498.53;683497;28;1145;-52
2022/02/14 01:34:35;;;;;;;6.73;3.17;;;;;;;8.07;68.67;99502.94;684122;28;1256;-57
2022/02/14 01:34:55;;;;;;;6.65;3.10;;;;;;;8.01;69.22;99500.41;683973;28;1280;-53
2022/02/14 01:35:16;;;;;;;8.97;3.43;;;;;;;8.00;69.84;99499.56;682806;28;4495;-53
2022/02/14 01:35:36;;;;;;;7.30;3.30;;;;;;;7.98;69.11;99498.69;683319;28;3447;-53
2022/02/14 01:35:57;;;;;;;6.67;3.10;;;;;;;7.91;70.13;99486.66;680801;28;4571;-53
2022/02/14 01:36:17;;;;;;;6.35;3.15;;;;;;;7.88;69.91;99493.63;681658;28;2015;-58
2022/02/14 01:36:37;;;;;;;6.47;3.10;;;;;;;7.91;69.17;99491.88;681719;28;1422;-53
2022/02/14 01:36:58;;;;;;;6.72;2.90;;;;;;;7.98;68.98;99496.09;681210;28;1507;-58
2022/02/14 01:37:20;;;;;;;6.93;3.37;;;;;;;7.99;69.56;99499.59;682653;28;1196;-55
2022/02/14 01:37:40;;;;;;;8.00;3.40;;;;;;;8.02;68.11;99491.72;681737;28;1984;-58
2022/02/14 01:38:01;;;;;;;7.50;3.17;;;;;;;8.02;69.10;99495.19;683391;28;1097;-56
2022/02/14 01:38:24;;;;;;;7.05;3.25;;;;;;;7.97;69.57;99491.75;682989;28;1058;-55
2022/02/14 01:38:44;;;;;;;6.13;3.10;;;;;;;7.93;69.65;99487.47;684029;28;1085;-54
2022/02/14 01:39:05;;;;;;;6.13;2.93;;;;;;;7.90;69.16;99489.28;683439;28;4608;-57
2022/02/14 01:39:28;;;;;;;7.13;3.30;;;;;;;7.92;69.31;99487.50;683018;28;1951;-55
2022/02/14 01:39:49;;;;;;;6.68;2.97;;;;;;;7.98;69.71;99484.84;683507;28;1650;-52
2022/02/14 01:40:10;;;;;;;6.70;3.22;;;;;;;7.89;70.60;99495.34;683451;28;1227;-54
2022/02/14 01:40:31;;;;;;;5.97;3.30;;;;;;;7.92;69.49;99485.78;684356;28;1362;-56
2022/02/14 01:40:51;;;;;;;7.20;3.20;;;;;;;7.89;69.74;99487.56;685018;28;1289;-54
2022/02/14 01:41:12;;;;;;;6.70;3.27;;;;;;;7.80;70.00;99484.19;684645;28;1446;-53